createdAt,value
2018-11-23T00:00:14.932Z,27.70
2018-11-23T00:02:44.480Z,25.90
2018-11-23T00:05:13.176Z,25.33
2018-11-23T00:07:42.264Z,26.63
2018-11-23T00:10:12.798Z,28.17
2018-11-23T00:12:41.188Z,28.23
2018-11-23T00:15:12.010Z,25.60
2018-11-23T00:17:40.475Z,26.93
2018-11-23T00:20:11.437Z,27.03
2018-11-23T00:22:39.923Z,25.50
2018-11-23T00:25:10.536Z,26.07
2018-11-23T00:27:39.192Z,25.60
2018-11-23T00:30:10.268Z,25.10
2018-11-23T00:32:38.856Z,25.90
2018-11-23T00:35:08.686Z,26.03
2018-11-23T00:37:37.108Z,27.10
2018-11-23T00:40:07.543Z,26.00
2018-11-23T00:42:35.952Z,26.43
2018-11-23T00:45:05.943Z,25.37
2018-11-23T00:47:34.401Z,27.07
2018-11-23T00:50:02.867Z,27.97
2018-11-23T00:52:31.382Z,28.27
2018-11-23T00:54:59.796Z,27.67
2018-11-23T00:57:28.187Z,27.43
2018-11-23T00:59:56.609Z,26.23
2018-11-23T01:02:25.049Z,27.17
2018-11-23T01:04:53.445Z,26.93
2018-11-23T01:07:21.921Z,26.77
2018-11-23T01:09:50.280Z,27.37
2018-11-23T01:12:18.679Z,26.77
2018-11-23T01:14:47.145Z,27.10
2018-11-23T01:17:15.544Z,26.60
2018-11-23T01:19:43.933Z,28.63
2018-11-23T01:22:12.359Z,27.60
2018-11-23T01:24:40.773Z,26.53
2018-11-23T01:27:09.297Z,28.20
2018-11-23T01:29:37.706Z,26.30
2018-11-23T01:32:06.200Z,27.33
2018-11-23T01:34:34.575Z,25.70
2018-11-23T01:37:02.966Z,28.43
2018-11-23T01:39:31.390Z,27.40
2018-11-23T01:41:59.820Z,28.83
2018-11-23T01:44:28.197Z,28.50
2018-11-23T01:46:56.708Z,28.47
2018-11-23T01:49:25.116Z,27.03
2018-11-23T01:51:53.532Z,27.13
2018-11-23T01:54:21.914Z,26.23
2018-11-23T01:56:50.317Z,27.17
2018-11-23T01:59:18.704Z,28.33
2018-11-23T02:01:47.076Z,26.83
2018-11-23T02:04:15.440Z,27.43
2018-11-23T02:06:43.911Z,27.33
2018-11-23T02:09:12.325Z,28.03
2018-11-23T02:11:40.722Z,27.20
2018-11-23T02:14:09.104Z,27.83
2018-11-23T02:16:37.591Z,29.47
2018-11-23T02:19:06.055Z,27.40
2018-11-23T02:21:34.521Z,27.83
2018-11-23T02:24:02.892Z,27.17
2018-11-23T02:26:31.358Z,28.60
2018-11-23T02:28:59.762Z,27.57
2018-11-23T02:31:32.421Z,28.50
2018-11-23T02:34:00.826Z,28.30
2018-11-23T02:36:29.237Z,28.27
2018-11-23T02:38:57.624Z,28.33
2018-11-23T02:41:26.015Z,28.40
2018-11-23T02:43:54.387Z,29.47
2018-11-23T02:46:22.777Z,29.40
2018-11-23T02:48:51.157Z,29.70
2018-11-23T02:51:19.561Z,30.50
2018-11-23T02:53:48.623Z,28.00
2018-11-23T02:56:17.141Z,27.90
2018-11-23T02:58:45.861Z,28.73
2018-11-23T03:01:14.260Z,29.63
2018-11-23T03:03:42.683Z,29.20
2018-11-23T03:06:11.047Z,30.23
2018-11-23T03:08:39.520Z,27.80
2018-11-23T03:11:07.923Z,29.60
2018-11-23T03:13:36.312Z,29.50
2018-11-23T03:16:04.690Z,28.77
2018-11-23T03:18:33.072Z,28.83
2018-11-23T03:21:01.448Z,28.27
2018-11-23T03:23:29.832Z,27.83
2018-11-23T03:25:58.248Z,29.17
2018-11-23T03:28:26.714Z,27.17
2018-11-23T03:30:55.112Z,27.77
2018-11-23T03:33:23.549Z,28.90
2018-11-23T03:35:51.945Z,27.93
2018-11-23T03:38:20.387Z,28.80
2018-11-23T03:40:48.817Z,30.47
2018-11-23T03:43:17.175Z,29.50
2018-11-23T03:45:45.564Z,28.80
2018-11-23T03:48:14.024Z,29.60
2018-11-23T03:50:42.401Z,30.03
2018-11-23T03:53:10.830Z,28.43
2018-11-23T03:55:39.202Z,27.43
2018-11-23T03:58:07.593Z,28.77
2018-11-23T04:00:35.967Z,29.53
2018-11-23T04:03:04.568Z,29.13
2018-11-23T04:05:32.998Z,28.83
2018-11-23T04:08:01.429Z,29.80
2018-11-23T04:10:29.825Z,28.27
2018-11-23T04:12:58.220Z,29.07
2018-11-23T04:15:26.690Z,26.80
2018-11-23T04:17:55.092Z,28.03
2018-11-23T04:20:23.478Z,29.40
2018-11-23T04:22:51.913Z,27.97
2018-11-23T04:25:20.325Z,28.77
2018-11-23T04:27:49.009Z,29.40
2018-11-23T04:30:17.961Z,27.50
2018-11-23T04:32:47.334Z,26.50
2018-11-23T04:35:16.961Z,25.87
2018-11-23T04:37:46.061Z,28.27
2018-11-23T04:40:15.261Z,29.90
2018-11-23T04:42:43.922Z,28.83
2018-11-23T04:45:12.710Z,30.87
2018-11-23T04:47:41.366Z,29.90
2018-11-23T04:50:11.280Z,28.50
2018-11-23T04:52:39.603Z,27.63
2018-11-23T04:55:08.696Z,27.83
2018-11-23T04:57:37.058Z,27.83
2018-11-23T05:00:08.132Z,27.33
2018-11-23T05:02:36.544Z,27.67
2018-11-23T05:05:06.459Z,29.60
2018-11-23T05:07:35.090Z,28.60
2018-11-23T05:10:03.655Z,27.53
2018-11-23T05:12:32.058Z,29.37
2018-11-23T05:15:00.497Z,27.77
2018-11-23T05:17:28.882Z,26.80
2018-11-23T05:19:57.288Z,28.70
2018-11-23T05:22:25.663Z,27.20
2018-11-23T05:24:54.096Z,28.03
2018-11-23T05:27:22.480Z,27.77
2018-11-23T05:29:51.100Z,28.63
2018-11-23T05:32:19.488Z,28.27
2018-11-23T05:34:47.891Z,28.73
2018-11-23T05:37:17.063Z,29.17
2018-11-23T05:39:45.466Z,27.00
2018-11-23T05:42:13.911Z,29.50
2018-11-23T05:44:42.376Z,26.63
2018-11-23T05:47:10.806Z,27.57
2018-11-23T05:49:39.301Z,26.40
2018-11-23T05:52:07.658Z,28.57
2018-11-23T05:54:36.090Z,27.53
2018-11-23T05:57:04.855Z,29.30
2018-11-23T05:59:33.238Z,27.50
2018-11-23T06:02:01.690Z,26.97
2018-11-23T06:04:30.045Z,25.83
2018-11-23T06:06:58.460Z,27.43
2018-11-23T06:09:26.848Z,28.37
2018-11-23T06:11:55.278Z,27.23
2018-11-23T06:14:23.658Z,28.60
2018-11-23T06:16:52.055Z,26.90
2018-11-23T06:19:20.460Z,26.27
2018-11-23T06:21:48.919Z,26.77
2018-11-23T06:24:17.341Z,26.90
2018-11-23T06:26:45.969Z,26.20
2018-11-23T06:29:14.372Z,27.40
2018-11-23T06:31:42.752Z,26.57
2018-11-23T06:34:11.167Z,27.60
2018-11-23T06:36:39.518Z,25.70
2018-11-23T06:39:08.866Z,24.90
2018-11-23T06:41:37.312Z,25.03
2018-11-23T06:44:09.753Z,27.77
2018-11-23T06:46:38.149Z,25.60
2018-11-23T06:49:06.662Z,26.80
2018-11-23T06:51:35.092Z,24.30
2018-11-23T06:54:03.523Z,26.83
2018-11-23T06:56:31.944Z,26.70
2018-11-23T06:59:00.315Z,25.17
2018-11-23T07:01:28.721Z,23.63
2018-11-23T07:03:57.137Z,25.53
2018-11-23T07:06:25.564Z,23.73
2018-11-23T07:08:53.946Z,25.23
2018-11-23T07:11:22.441Z,24.27
2018-11-23T07:13:50.845Z,25.67
2018-11-23T07:16:19.245Z,25.37
2018-11-23T07:18:47.789Z,24.27
2018-11-23T07:21:21.367Z,23.57
2018-11-23T07:23:44.639Z,24.07
2018-11-23T07:26:13.042Z,24.17
2018-11-23T07:28:41.465Z,23.43
2018-11-23T07:31:09.912Z,23.90
2018-11-23T07:33:38.361Z,24.47
2018-11-23T07:36:06.789Z,24.03
2018-11-23T07:38:35.224Z,22.80
2018-11-23T07:41:14.767Z,22.47
2018-11-23T07:43:43.229Z,21.60
2018-11-23T07:46:11.644Z,22.17
2018-11-23T07:48:40.306Z,22.40
2018-11-23T07:51:08.701Z,22.07
2018-11-23T07:53:37.153Z,21.13
2018-11-23T07:56:05.645Z,21.30
2018-11-23T07:58:34.024Z,20.40
2018-11-23T08:01:02.454Z,20.43
2018-11-23T08:03:30.929Z,20.77
2018-11-23T08:05:59.312Z,19.80
2018-11-23T08:08:27.696Z,20.13
2018-11-23T08:10:55.303Z,20.13
2018-11-23T08:13:23.705Z,18.73
2018-11-23T08:15:52.178Z,19.93
2018-11-23T08:18:20.797Z,18.97
2018-11-23T08:20:49.149Z,19.07
2018-11-23T08:23:17.553Z,19.23
2018-11-23T08:25:46.013Z,18.93
2018-11-23T08:28:14.464Z,18.83
2018-11-23T08:30:42.844Z,18.77
2018-11-23T08:33:11.223Z,18.20
2018-11-23T08:35:39.624Z,17.87
2018-11-23T08:38:08.039Z,17.27
2018-11-23T08:40:36.538Z,17.07
2018-11-23T08:43:05.022Z,17.37
2018-11-23T08:45:33.424Z,18.47
2018-11-23T08:48:01.962Z,17.87
2018-11-23T08:50:31.074Z,17.70
2018-11-23T08:52:59.676Z,18.20
2018-11-23T08:55:28.350Z,16.87
2018-11-23T08:57:56.756Z,16.10
2018-11-23T09:00:26.345Z,16.97
2018-11-23T09:02:57.301Z,17.07
2018-11-23T09:05:25.680Z,16.57
2018-11-23T09:07:55.255Z,15.63
2018-11-23T09:10:25.089Z,15.57
2018-11-23T09:12:56.049Z,16.77
2018-11-23T09:15:24.524Z,15.60
2018-11-23T09:17:53.128Z,15.20
2018-11-23T09:20:21.568Z,16.40
2018-11-23T09:22:50.017Z,15.57
2018-11-23T09:25:19.782Z,14.73
2018-11-23T09:27:48.201Z,15.13
2018-11-23T09:30:18.798Z,15.00
2018-11-23T09:32:47.881Z,15.17
2018-11-23T09:35:16.365Z,15.13
2018-11-23T09:37:45.243Z,14.97
2018-11-23T09:40:18.569Z,14.70
2018-11-23T09:42:47.061Z,18.13
2018-11-23T09:45:19.402Z,13.97
2018-11-23T09:47:49.104Z,14.43
2018-11-23T09:50:18.822Z,15.47
2018-11-23T09:52:48.307Z,13.63
2018-11-23T09:55:17.028Z,15.40
2018-11-23T09:57:45.412Z,14.63
2018-11-23T10:00:18.922Z,14.60
2018-11-23T10:02:48.281Z,15.30
2018-11-23T10:05:17.284Z,13.73
2018-11-23T10:07:47.016Z,13.67
2018-11-23T10:10:16.410Z,13.90
2018-11-23T10:12:45.275Z,11.63
2018-11-23T10:15:15.036Z,10.60
2018-11-23T10:17:43.573Z,12.50
2018-11-23T10:20:16.464Z,11.03
2018-11-23T10:22:45.243Z,11.57
2018-11-23T10:25:16.882Z,11.30
2018-11-23T10:27:45.601Z,11.27
2018-11-23T10:30:16.546Z,10.33
2018-11-23T10:32:45.815Z,10.60
2018-11-23T10:35:14.288Z,10.53
2018-11-23T10:37:43.605Z,11.03
2018-11-23T10:40:15.247Z,11.17
2018-11-23T10:42:43.944Z,10.60
2018-11-23T10:45:14.401Z,12.13
2018-11-23T10:47:42.890Z,10.83
2018-11-23T10:50:14.609Z,18.63
2018-11-23T10:52:43.082Z,12.00
2018-11-23T10:55:14.682Z,12.07
2018-11-23T10:57:43.171Z,11.33
2018-11-23T11:00:19.838Z,11.80
2018-11-23T11:02:53.761Z,11.87
2018-11-23T11:05:27.556Z,11.20
2018-11-23T11:07:57.393Z,11.80
2018-11-23T11:10:25.909Z,10.30
2018-11-23T11:12:54.441Z,11.53
2018-11-23T11:15:23.001Z,11.77
2018-11-23T11:17:51.471Z,11.50
2018-11-23T11:20:20.265Z,12.50
2018-11-23T11:22:48.756Z,12.17
2018-11-23T11:25:17.164Z,12.57
2018-11-23T11:27:45.846Z,12.93
2018-11-23T11:30:16.205Z,13.33
2018-11-23T11:32:45.131Z,12.07
2018-11-23T11:35:13.819Z,13.47
2018-11-23T11:37:42.765Z,13.03
2018-11-23T11:40:13.599Z,13.03
2018-11-23T11:42:42.605Z,12.40
2018-11-23T11:45:13.281Z,14.03
2018-11-23T11:47:42.439Z,13.60
2018-11-23T11:50:11.724Z,12.63
2018-11-23T11:52:41.401Z,12.80
2018-11-23T11:55:12.005Z,13.10
2018-11-23T11:57:40.471Z,13.17
2018-11-23T12:00:11.437Z,17.40
2018-11-23T12:02:39.936Z,12.40
2018-11-23T12:05:09.818Z,12.77
2018-11-23T12:07:38.332Z,13.03
2018-11-23T12:10:09.146Z,13.07
2018-11-23T12:12:37.722Z,13.60
2018-11-23T12:15:07.388Z,12.93
2018-11-23T12:17:35.798Z,13.07
2018-11-23T12:20:06.018Z,13.13
2018-11-23T12:22:34.522Z,12.77
2018-11-23T12:25:02.950Z,12.27
2018-11-23T12:27:31.565Z,13.03
2018-11-23T12:29:59.996Z,12.93
2018-11-23T12:32:28.414Z,13.13
2018-11-23T12:34:56.828Z,13.07
2018-11-23T12:37:25.191Z,13.33
2018-11-23T12:39:53.964Z,13.43
2018-11-23T12:42:22.668Z,12.23
2018-11-23T12:44:51.167Z,13.17
2018-11-23T12:47:19.598Z,12.83
2018-11-23T12:49:48.060Z,13.30
2018-11-23T12:52:16.463Z,13.57
2018-11-23T12:54:44.913Z,13.57
2018-11-23T12:57:13.402Z,13.07
2018-11-23T12:59:41.788Z,13.43
2018-11-23T13:02:10.184Z,15.43
2018-11-23T13:04:38.552Z,14.80
2018-11-23T13:07:07.124Z,13.93
2018-11-23T13:09:35.530Z,13.17
2018-11-23T13:12:04.102Z,14.07
2018-11-23T13:14:32.497Z,13.10
2018-11-23T13:17:00.907Z,12.97
2018-11-23T13:19:29.350Z,13.43
2018-11-23T13:21:57.734Z,12.77
2018-11-23T13:24:26.113Z,12.23
2018-11-23T13:26:55.049Z,12.23
2018-11-23T13:29:23.053Z,13.13
2018-11-23T13:31:51.462Z,12.77
2018-11-23T13:34:19.895Z,12.57
2018-11-23T13:36:48.335Z,13.07
2018-11-23T13:39:16.751Z,13.20
2018-11-23T13:41:45.135Z,13.63
2018-11-23T13:44:13.524Z,12.53
2018-11-23T13:46:41.948Z,12.43
2018-11-23T13:49:10.407Z,13.03
2018-11-23T13:51:38.837Z,12.33
2018-11-23T13:54:07.309Z,12.90
2018-11-23T13:56:35.887Z,12.03
2018-11-23T13:59:04.619Z,13.13
2018-11-23T14:01:33.080Z,13.20
2018-11-23T14:04:01.496Z,13.53
2018-11-23T14:06:29.910Z,14.90
2018-11-23T14:08:58.328Z,12.77
2018-11-23T14:11:26.687Z,12.67
2018-11-23T14:13:55.115Z,14.17
2018-11-23T14:16:23.538Z,13.00
2018-11-23T14:18:51.936Z,12.27
2018-11-23T14:21:20.335Z,13.63
2018-11-23T14:23:48.754Z,13.00
2018-11-23T14:26:17.177Z,14.43
2018-11-23T14:28:45.604Z,11.90
2018-11-23T14:31:14.040Z,12.53
2018-11-23T14:33:42.434Z,12.73
2018-11-23T14:36:10.796Z,12.37
2018-11-23T14:38:39.217Z,13.93
2018-11-23T14:41:07.641Z,12.40
2018-11-23T14:43:36.081Z,13.50
2018-11-23T14:46:04.573Z,12.90
2018-11-23T14:48:32.996Z,12.80
2018-11-23T14:51:01.445Z,11.93
2018-11-23T14:53:29.846Z,12.10
2018-11-23T14:55:58.310Z,13.60
2018-11-23T14:58:26.704Z,12.60
2018-11-23T15:00:55.478Z,12.53
2018-11-23T15:03:23.848Z,12.63
2018-11-23T15:05:52.231Z,12.17
2018-11-23T15:08:20.643Z,12.23
2018-11-23T15:10:49.065Z,11.93
2018-11-23T15:13:17.472Z,12.70
2018-11-23T15:15:45.845Z,13.40
2018-11-23T15:18:14.244Z,13.30
2018-11-23T15:20:44.672Z,13.37
2018-11-23T15:23:16.202Z,13.10
2018-11-23T15:25:44.644Z,12.27
2018-11-23T15:28:13.765Z,12.27
2018-11-23T15:30:42.967Z,12.80
2018-11-23T15:33:12.889Z,12.97
2018-11-23T15:35:41.969Z,13.60
2018-11-23T15:38:14.102Z,12.67
2018-11-23T15:40:42.571Z,12.90
2018-11-23T15:43:12.309Z,12.33
2018-11-23T15:45:40.733Z,12.37
2018-11-23T15:48:09.676Z,12.73
2018-11-23T15:50:39.475Z,12.07
2018-11-23T15:53:09.361Z,13.20
2018-11-23T15:55:38.646Z,13.03
2018-11-23T15:58:09.840Z,13.23
2018-11-23T16:00:39.373Z,12.50
2018-11-23T16:03:09.285Z,13.13
2018-11-23T16:05:37.973Z,16.40
2018-11-23T16:08:10.818Z,14.10
2018-11-23T16:10:39.673Z,19.23
2018-11-23T16:13:11.446Z,30.47
2018-11-23T16:15:37.842Z,18.00
2018-11-23T16:18:06.685Z,23.47
2018-11-23T16:20:37.476Z,21.83
2018-11-23T16:23:07.571Z,18.57
2018-11-23T16:25:36.011Z,15.33
2018-11-23T16:28:05.662Z,17.43
2018-11-23T16:30:35.601Z,14.57
2018-11-23T16:33:05.213Z,15.50
2018-11-23T16:35:35.631Z,14.27
2018-11-23T16:38:07.295Z,14.47
2018-11-23T16:40:37.307Z,16.87
2018-11-23T16:43:07.390Z,14.37
2018-11-23T16:45:36.641Z,14.57
2018-11-23T16:48:06.526Z,14.23
2018-11-23T16:50:35.040Z,15.10
2018-11-23T16:53:03.912Z,14.00
2018-11-23T16:55:32.434Z,14.80
2018-11-23T16:58:03.091Z,14.03
2018-11-23T17:00:32.978Z,14.27
2018-11-23T17:03:02.958Z,14.83
2018-11-23T17:05:33.141Z,15.40
2018-11-23T17:08:01.593Z,15.27
2018-11-23T17:10:29.994Z,14.90
2018-11-23T17:12:58.507Z,14.70
2018-11-23T17:15:28.011Z,15.63
2018-11-23T17:17:56.667Z,15.30
2018-11-23T17:20:26.502Z,14.80
2018-11-23T17:22:56.001Z,15.53
2018-11-23T17:25:25.332Z,16.27
2018-11-23T17:27:54.557Z,14.70
2018-11-23T17:30:24.637Z,15.30
2018-11-23T17:32:53.295Z,15.53
2018-11-23T17:35:21.945Z,16.20
2018-11-23T17:37:50.673Z,15.30
2018-11-23T17:40:20.399Z,16.10
2018-11-23T17:42:48.844Z,16.20
2018-11-23T17:45:19.022Z,16.53
2018-11-23T17:47:47.670Z,16.07
2018-11-23T17:50:17.457Z,17.73
2018-11-23T17:52:46.217Z,17.63
2018-11-23T17:55:15.078Z,16.80
2018-11-23T17:57:44.672Z,17.27
2018-11-23T18:00:15.942Z,17.77
2018-11-23T18:02:44.835Z,18.63
2018-11-23T18:05:14.368Z,17.63
2018-11-23T18:07:42.885Z,19.07
2018-11-23T18:10:14.781Z,22.73
2018-11-23T18:12:43.573Z,20.97
2018-11-23T18:15:15.265Z,19.13
2018-11-23T18:17:44.018Z,18.63
2018-11-23T18:20:13.835Z,19.20
2018-11-23T18:22:42.553Z,18.07
2018-11-23T18:25:14.383Z,18.47
2018-11-23T18:27:43.741Z,18.30
2018-11-23T18:30:12.829Z,20.57
2018-11-23T18:32:41.285Z,20.00
2018-11-23T18:35:11.124Z,18.03
2018-11-23T18:37:39.642Z,17.77
2018-11-23T18:40:10.198Z,21.83
2018-11-23T18:42:38.741Z,22.93
2018-11-23T18:45:09.118Z,24.30
2018-11-23T18:47:37.700Z,21.60
2018-11-23T18:50:08.263Z,19.70
2018-11-23T18:52:36.784Z,19.13
2018-11-23T18:55:05.548Z,20.30
2018-11-23T18:57:34.004Z,20.17
2018-11-23T19:00:02.435Z,19.40
2018-11-23T19:02:30.906Z,18.60
2018-11-23T19:04:59.376Z,21.00
2018-11-23T19:07:27.996Z,18.57
2018-11-23T19:09:56.400Z,20.47
2018-11-23T19:12:24.825Z,19.63
2018-11-23T19:14:53.292Z,20.03
2018-11-23T19:17:21.836Z,21.30
2018-11-23T19:19:50.239Z,21.67
2018-11-23T19:22:18.732Z,23.10
2018-11-23T19:24:47.135Z,23.70
2018-11-23T19:27:15.662Z,23.77
2018-11-23T19:29:44.183Z,24.93
2018-11-23T19:32:12.747Z,28.97
2018-11-23T19:34:41.242Z,25.30
2018-11-23T19:37:09.648Z,24.30
2018-11-23T19:39:38.098Z,24.87
2018-11-23T19:42:06.535Z,24.20
2018-11-23T19:44:34.973Z,23.73
2018-11-23T19:47:03.357Z,22.80
2018-11-23T19:49:31.755Z,20.90
2018-11-23T19:52:00.209Z,21.73
2018-11-23T19:54:28.673Z,25.70
2018-11-23T19:56:57.393Z,28.43
2018-11-23T19:59:25.857Z,23.27
2018-11-23T20:01:54.314Z,22.97
2018-11-23T20:04:22.794Z,23.17
2018-11-23T20:06:51.276Z,28.47
2018-11-23T20:09:19.742Z,24.97
2018-11-23T20:11:48.221Z,23.30
2018-11-23T20:14:16.677Z,24.83
2018-11-23T20:16:45.047Z,24.53
2018-11-23T20:19:13.593Z,25.93
2018-11-23T20:21:42.032Z,24.67
2018-11-23T20:24:10.480Z,23.43
2018-11-23T20:26:39.127Z,25.40
2018-11-23T20:29:07.578Z,22.37
2018-11-23T20:31:36.041Z,27.03
2018-11-23T20:34:04.523Z,26.37
2018-11-23T20:36:33.047Z,26.67
2018-11-23T20:39:01.490Z,25.40
2018-11-23T20:41:30.333Z,26.00
2018-11-23T20:43:58.780Z,24.30
2018-11-23T20:46:27.294Z,24.13
2018-11-23T20:48:55.738Z,24.93
2018-11-23T20:51:24.193Z,24.57
2018-11-23T20:53:52.645Z,22.70
2018-11-23T20:56:21.125Z,23.47
2018-11-23T20:59:05.248Z,23.07
2018-11-23T21:01:33.944Z,24.63
2018-11-23T21:04:04.167Z,25.43
2018-11-23T21:06:32.969Z,26.13
2018-11-23T21:09:01.383Z,23.67
2018-11-23T21:11:39.908Z,24.27
2018-11-23T21:14:08.549Z,23.00
2018-11-23T21:16:37.109Z,23.90
2018-11-23T21:19:05.561Z,23.30
2018-11-23T21:21:33.999Z,22.67
2018-11-23T21:24:07.927Z,22.87
2018-11-23T21:26:46.283Z,23.33
2018-11-23T21:29:20.146Z,30.20
2018-11-23T21:31:53.715Z,23.93
2018-11-23T21:34:37.737Z,23.13
2018-11-23T21:37:13.085Z,22.17
2018-11-23T21:39:41.672Z,22.83
2018-11-23T21:42:10.153Z,24.33
2018-11-23T21:44:38.613Z,21.40
2018-11-23T21:47:07.051Z,24.00
2018-11-23T21:49:35.466Z,24.70
2018-11-23T21:52:04.090Z,23.43
2018-11-23T21:54:32.475Z,22.70
2018-11-23T21:57:00.991Z,23.87
2018-11-23T21:59:29.378Z,21.77
2018-11-23T22:01:57.809Z,23.97
2018-11-23T22:04:26.285Z,22.73
2018-11-23T22:06:54.794Z,23.13
2018-11-23T22:09:23.167Z,22.47
2018-11-23T22:11:52.511Z,23.10
2018-11-23T22:14:20.092Z,23.47
2018-11-23T22:16:49.547Z,22.83
2018-11-23T22:19:18.025Z,23.73
2018-11-23T22:21:46.481Z,23.47
2018-11-23T22:24:14.997Z,22.93
2018-11-23T22:26:43.715Z,23.97
2018-11-23T22:29:12.246Z,23.03
2018-11-23T22:31:40.648Z,23.07
2018-11-23T22:34:15.277Z,24.20
2018-11-23T22:36:43.697Z,23.10
2018-11-23T22:39:12.180Z,23.80
2018-11-23T22:41:47.020Z,21.73
2018-11-23T22:44:15.454Z,23.10
2018-11-23T22:46:43.887Z,23.50
2018-11-23T22:49:12.272Z,21.40
2018-11-23T22:51:40.757Z,22.77
2018-11-23T22:54:09.218Z,24.03
2018-11-23T22:56:38.544Z,23.30
2018-11-23T22:59:06.988Z,23.17
2018-11-23T23:01:35.405Z,23.77
2018-11-23T23:04:03.864Z,23.53
2018-11-23T23:06:32.280Z,23.73
2018-11-23T23:09:00.962Z,22.17
2018-11-23T23:11:29.420Z,22.20
2018-11-23T23:13:57.865Z,23.77
2018-11-23T23:16:26.354Z,24.57
2018-11-23T23:18:54.728Z,24.03
2018-11-23T23:21:23.115Z,22.03
2018-11-23T23:23:51.500Z,21.83
2018-11-23T23:26:19.870Z,24.43
2018-11-23T23:28:48.261Z,22.57
2018-11-23T23:31:16.636Z,24.53
2018-11-23T23:33:44.996Z,23.10
2018-11-23T23:36:13.389Z,22.70
2018-11-23T23:38:42.373Z,22.30
2018-11-23T23:41:11.425Z,22.93
2018-11-23T23:43:39.907Z,23.40
2018-11-23T23:46:08.274Z,23.03
2018-11-23T23:48:36.697Z,23.47
2018-11-23T23:51:06.780Z,23.23
2018-11-23T23:53:35.245Z,23.00
2018-11-23T23:56:03.603Z,24.63
2018-11-23T23:58:32.045Z,22.33
